sensor_id;sensor_type;location;lat;lon;timestamp;P1;durP1;ratioP1;P2;durP2;ratioP2
75628;SDS011;64213;46.452;16.994;2023-02-28T00:00:03;14.98;;;5.03;;
75628;SDS011;64213;46.452;16.994;2023-02-28T00:03:12;14.73;;;4.55;;
75628;SDS011;64213;46.452;16.994;2023-02-28T00:06:14;12.63;;;4.90;;
75628;SDS011;64213;46.452;16.994;2023-02-28T00:09:17;12.10;;;4.57;;
75628;SDS011;64213;46.452;16.994;2023-02-28T00:12:19;15.97;;;4.93;;
75628;SDS011;64213;46.452;16.994;2023-02-28T00:15:22;14.55;;;4.68;;
75628;SDS011;64213;46.452;16.994;2023-02-28T00:18:25;14.32;;;4.85;;
75628;SDS011;64213;46.452;16.994;2023-02-28T00:21:27;13.93;;;5.05;;
75628;SDS011;64213;46.452;16.994;2023-02-28T00:24:30;10.60;;;4.27;;
75628;SDS011;64213;46.452;16.994;2023-02-28T00:27:32;7.07;;;2.40;;
75628;SDS011;64213;46.452;16.994;2023-02-28T00:30:35;13.80;;;4.47;;
75628;SDS011;64213;46.452;16.994;2023-02-28T00:33:37;12.37;;;4.05;;
75628;SDS011;64213;46.452;16.994;2023-02-28T00:36:39;14.10;;;4.85;;
75628;SDS011;64213;46.452;16.994;2023-02-28T00:39:45;12.33;;;4.13;;
75628;SDS011;64213;46.452;16.994;2023-02-28T00:42:47;14.80;;;4.57;;
75628;SDS011;64213;46.452;16.994;2023-02-28T00:45:49;14.18;;;4.20;;
75628;SDS011;64213;46.452;16.994;2023-02-28T00:48:51;15.80;;;5.03;;
75628;SDS011;64213;46.452;16.994;2023-02-28T00:51:54;14.38;;;4.57;;
75628;SDS011;64213;46.452;16.994;2023-02-28T00:54:57;14.83;;;4.90;;
75628;SDS011;64213;46.452;16.994;2023-02-28T00:57:59;12.80;;;3.90;;
75628;SDS011;64213;46.452;16.994;2023-02-28T01:01:01;8.90;;;2.87;;
75628;SDS011;64213;46.452;16.994;2023-02-28T01:04:05;14.73;;;4.57;;
75628;SDS011;64213;46.452;16.994;2023-02-28T01:07:07;14.80;;;4.90;;
75628;SDS011;64213;46.452;16.994;2023-02-28T01:10:09;13.77;;;4.57;;
75628;SDS011;64213;46.452;16.994;2023-02-28T01:13:14;14.77;;;4.00;;
75628;SDS011;64213;46.452;16.994;2023-02-28T01:16:17;12.52;;;3.92;;
75628;SDS011;64213;46.452;16.994;2023-02-28T01:19:19;13.02;;;4.87;;
75628;SDS011;64213;46.452;16.994;2023-02-28T01:22:22;10.57;;;3.80;;
75628;SDS011;64213;46.452;16.994;2023-02-28T01:25:24;11.37;;;4.00;;
75628;SDS011;64213;46.452;16.994;2023-02-28T01:28:26;13.70;;;4.93;;
75628;SDS011;64213;46.452;16.994;2023-02-28T01:31:29;11.93;;;4.18;;
75628;SDS011;64213;46.452;16.994;2023-02-28T01:34:31;10.02;;;3.95;;
75628;SDS011;64213;46.452;16.994;2023-02-28T01:37:34;14.70;;;4.72;;
75628;SDS011;64213;46.452;16.994;2023-02-28T01:40:36;13.47;;;3.80;;
75628;SDS011;64213;46.452;16.994;2023-02-28T01:46:46;15.52;;;4.75;;
75628;SDS011;64213;46.452;16.994;2023-02-28T01:49:48;12.27;;;4.12;;
75628;SDS011;64213;46.452;16.994;2023-02-28T01:52:54;18.48;;;4.78;;
75628;SDS011;64213;46.452;16.994;2023-02-28T01:56:00;13.87;;;4.50;;
75628;SDS011;64213;46.452;16.994;2023-02-28T01:59:05;12.33;;;4.37;;
75628;SDS011;64213;46.452;16.994;2023-02-28T02:02:07;11.18;;;4.00;;
75628;SDS011;64213;46.452;16.994;2023-02-28T02:05:11;9.77;;;2.80;;
75628;SDS011;64213;46.452;16.994;2023-02-28T02:08:26;14.15;;;4.78;;
75628;SDS011;64213;46.452;16.994;2023-02-28T02:11:30;10.13;;;3.30;;
75628;SDS011;64213;46.452;16.994;2023-02-28T02:17:56;12.18;;;4.25;;
75628;SDS011;64213;46.452;16.994;2023-02-28T02:21:16;14.87;;;5.25;;
75628;SDS011;64213;46.452;16.994;2023-02-28T02:28:18;16.83;;;5.00;;
75628;SDS011;64213;46.452;16.994;2023-02-28T02:42:09;10.55;;;3.85;;
75628;SDS011;64213;46.452;16.994;2023-02-28T02:45:17;14.07;;;5.00;;
75628;SDS011;64213;46.452;16.994;2023-02-28T02:48:29;5.23;;;1.87;;
75628;SDS011;64213;46.452;16.994;2023-02-28T02:51:33;12.55;;;3.45;;
75628;SDS011;64213;46.452;16.994;2023-02-28T02:54:40;8.10;;;2.75;;
75628;SDS011;64213;46.452;16.994;2023-02-28T02:57:56;12.48;;;4.43;;
75628;SDS011;64213;46.452;16.994;2023-02-28T03:01:03;13.90;;;5.20;;
75628;SDS011;64213;46.452;16.994;2023-02-28T03:04:15;12.03;;;4.60;;
75628;SDS011;64213;46.452;16.994;2023-02-28T03:07:21;14.02;;;5.30;;
75628;SDS011;64213;46.452;16.994;2023-02-28T03:10:27;14.00;;;5.43;;
75628;SDS011;64213;46.452;16.994;2023-02-28T03:13:42;14.45;;;4.80;;
75628;SDS011;64213;46.452;16.994;2023-02-28T03:20:25;12.93;;;4.70;;
75628;SDS011;64213;46.452;16.994;2023-02-28T03:23:45;11.75;;;4.55;;
75628;SDS011;64213;46.452;16.994;2023-02-28T03:27:09;12.75;;;4.60;;
75628;SDS011;64213;46.452;16.994;2023-02-28T03:37:02;9.30;;;3.00;;
75628;SDS011;64213;46.452;16.994;2023-02-28T03:40:11;9.25;;;3.90;;
75628;SDS011;64213;46.452;16.994;2023-02-28T03:43:20;11.20;;;3.42;;
75628;SDS011;64213;46.452;16.994;2023-02-28T03:46:27;13.45;;;5.12;;
75628;SDS011;64213;46.452;16.994;2023-02-28T03:49:36;21.80;;;6.73;;
75628;SDS011;64213;46.452;16.994;2023-02-28T03:52:50;13.13;;;4.70;;
75628;SDS011;64213;46.452;16.994;2023-02-28T03:59:28;6.37;;;2.28;;
75628;SDS011;64213;46.452;16.994;2023-02-28T04:02:36;16.73;;;6.80;;
75628;SDS011;64213;46.452;16.994;2023-02-28T04:05:51;11.63;;;3.90;;
75628;SDS011;64213;46.452;16.994;2023-02-28T04:08:55;15.40;;;6.37;;
75628;SDS011;64213;46.452;16.994;2023-02-28T04:11:57;18.62;;;6.20;;
75628;SDS011;64213;46.452;16.994;2023-02-28T04:14:59;7.87;;;3.08;;
75628;SDS011;64213;46.452;16.994;2023-02-28T04:18:01;16.62;;;6.12;;
75628;SDS011;64213;46.452;16.994;2023-02-28T04:21:04;9.43;;;3.83;;
75628;SDS011;64213;46.452;16.994;2023-02-28T04:24:08;16.17;;;5.67;;
75628;SDS011;64213;46.452;16.994;2023-02-28T04:27:15;18.05;;;6.80;;
75628;SDS011;64213;46.452;16.994;2023-02-28T04:30:18;18.45;;;6.95;;
75628;SDS011;64213;46.452;16.994;2023-02-28T04:33:20;16.80;;;6.15;;
75628;SDS011;64213;46.452;16.994;2023-02-28T04:36:22;17.17;;;5.73;;
75628;SDS011;64213;46.452;16.994;2023-02-28T04:39:25;19.10;;;6.93;;
75628;SDS011;64213;46.452;16.994;2023-02-28T04:42:27;17.42;;;6.15;;
75628;SDS011;64213;46.452;16.994;2023-02-28T04:45:29;21.27;;;6.53;;
75628;SDS011;64213;46.452;16.994;2023-02-28T04:48:35;19.33;;;7.40;;
75628;SDS011;64213;46.452;16.994;2023-02-28T04:51:39;18.77;;;6.57;;
75628;SDS011;64213;46.452;16.994;2023-02-28T04:54:41;22.40;;;7.43;;
75628;SDS011;64213;46.452;16.994;2023-02-28T04:57:43;17.50;;;6.53;;
75628;SDS011;64213;46.452;16.994;2023-02-28T05:00:46;19.10;;;7.28;;
75628;SDS011;64213;46.452;16.994;2023-02-28T05:03:48;16.67;;;6.10;;
75628;SDS011;64213;46.452;16.994;2023-02-28T05:06:51;12.83;;;4.93;;
75628;SDS011;64213;46.452;16.994;2023-02-28T05:09:53;19.20;;;7.13;;
75628;SDS011;64213;46.452;16.994;2023-02-28T05:12:55;17.85;;;6.37;;
75628;SDS011;64213;46.452;16.994;2023-02-28T05:15:57;16.92;;;7.15;;
75628;SDS011;64213;46.452;16.994;2023-02-28T05:18:59;13.90;;;5.75;;
75628;SDS011;64213;46.452;16.994;2023-02-28T05:22:02;18.33;;;6.27;;
75628;SDS011;64213;46.452;16.994;2023-02-28T05:25:04;11.93;;;4.90;;
75628;SDS011;64213;46.452;16.994;2023-02-28T05:28:07;12.43;;;4.25;;
75628;SDS011;64213;46.452;16.994;2023-02-28T05:31:12;7.85;;;2.85;;
75628;SDS011;64213;46.452;16.994;2023-02-28T05:34:14;14.35;;;5.68;;
75628;SDS011;64213;46.452;16.994;2023-02-28T05:37:17;19.27;;;7.37;;
75628;SDS011;64213;46.452;16.994;2023-02-28T05:40:19;16.17;;;5.90;;
75628;SDS011;64213;46.452;16.994;2023-02-28T05:43:22;22.48;;;6.82;;
75628;SDS011;64213;46.452;16.994;2023-02-28T05:46:25;16.70;;;6.87;;
75628;SDS011;64213;46.452;16.994;2023-02-28T05:49:27;16.20;;;7.05;;
75628;SDS011;64213;46.452;16.994;2023-02-28T05:52:29;8.20;;;2.87;;
75628;SDS011;64213;46.452;16.994;2023-02-28T05:55:31;23.37;;;7.60;;
75628;SDS011;64213;46.452;16.994;2023-02-28T05:58:33;13.32;;;4.70;;
75628;SDS011;64213;46.452;16.994;2023-02-28T06:01:37;15.10;;;5.53;;
75628;SDS011;64213;46.452;16.994;2023-02-28T06:04:41;18.65;;;5.57;;
75628;SDS011;64213;46.452;16.994;2023-02-28T06:07:44;17.97;;;6.23;;
75628;SDS011;64213;46.452;16.994;2023-02-28T06:10:46;17.70;;;6.67;;
75628;SDS011;64213;46.452;16.994;2023-02-28T06:13:49;18.42;;;7.00;;
75628;SDS011;64213;46.452;16.994;2023-02-28T06:16:51;15.38;;;5.60;;
75628;SDS011;64213;46.452;16.994;2023-02-28T06:19:54;19.75;;;6.72;;
75628;SDS011;64213;46.452;16.994;2023-02-28T06:22:56;16.67;;;6.03;;
75628;SDS011;64213;46.452;16.994;2023-02-28T06:26:00;18.30;;;7.07;;
75628;SDS011;64213;46.452;16.994;2023-02-28T06:29:02;16.85;;;5.85;;
75628;SDS011;64213;46.452;16.994;2023-02-28T06:32:04;17.35;;;6.35;;
75628;SDS011;64213;46.452;16.994;2023-02-28T06:35:07;18.50;;;8.23;;
75628;SDS011;64213;46.452;16.994;2023-02-28T06:38:09;12.97;;;5.27;;
75628;SDS011;64213;46.452;16.994;2023-02-28T06:41:12;13.77;;;4.93;;
75628;SDS011;64213;46.452;16.994;2023-02-28T06:44:17;16.35;;;6.85;;
75628;SDS011;64213;46.452;16.994;2023-02-28T06:47:19;18.55;;;5.28;;
75628;SDS011;64213;46.452;16.994;2023-02-28T06:50:22;14.90;;;5.00;;
75628;SDS011;64213;46.452;16.994;2023-02-28T06:53:24;14.43;;;4.73;;
75628;SDS011;64213;46.452;16.994;2023-02-28T06:56:26;12.67;;;5.00;;
75628;SDS011;64213;46.452;16.994;2023-02-28T06:59:28;8.73;;;2.87;;
75628;SDS011;64213;46.452;16.994;2023-02-28T07:02:31;16.83;;;5.50;;
75628;SDS011;64213;46.452;16.994;2023-02-28T07:05:36;15.30;;;4.78;;
75628;SDS011;64213;46.452;16.994;2023-02-28T07:08:39;11.17;;;4.30;;
75628;SDS011;64213;46.452;16.994;2023-02-28T07:11:42;12.87;;;4.23;;
75628;SDS011;64213;46.452;16.994;2023-02-28T07:14:45;15.00;;;5.12;;
75628;SDS011;64213;46.452;16.994;2023-02-28T07:17:47;14.10;;;4.80;;
75628;SDS011;64213;46.452;16.994;2023-02-28T07:20:49;12.50;;;3.28;;
75628;SDS011;64213;46.452;16.994;2023-02-28T07:23:52;6.57;;;2.30;;
75628;SDS011;64213;46.452;16.994;2023-02-28T07:26:54;15.43;;;5.23;;
75628;SDS011;64213;46.452;16.994;2023-02-28T07:29:57;14.90;;;5.22;;
75628;SDS011;64213;46.452;16.994;2023-02-28T07:32:59;12.43;;;4.80;;
75628;SDS011;64213;46.452;16.994;2023-02-28T07:36:05;15.88;;;5.40;;
75628;SDS011;64213;46.452;16.994;2023-02-28T07:39:09;16.20;;;5.40;;
75628;SDS011;64213;46.452;16.994;2023-02-28T07:42:11;4.80;;;1.47;;
75628;SDS011;64213;46.452;16.994;2023-02-28T07:45:14;10.60;;;3.10;;
75628;SDS011;64213;46.452;16.994;2023-02-28T07:48:16;10.95;;;2.87;;
75628;SDS011;64213;46.452;16.994;2023-02-28T07:51:18;12.70;;;3.83;;
75628;SDS011;64213;46.452;16.994;2023-02-28T07:54:20;16.30;;;4.77;;
75628;SDS011;64213;46.452;16.994;2023-02-28T07:57:23;11.03;;;3.57;;
75628;SDS011;64213;46.452;16.994;2023-02-28T08:00:25;12.43;;;4.32;;
75628;SDS011;64213;46.452;16.994;2023-02-28T08:03:27;11.98;;;3.92;;
75628;SDS011;64213;46.452;16.994;2023-02-28T08:06:29;13.35;;;4.18;;
75628;SDS011;64213;46.452;16.994;2023-02-28T08:09:31;12.53;;;3.80;;
75628;SDS011;64213;46.452;16.994;2023-02-28T08:12:34;10.30;;;3.23;;
75628;SDS011;64213;46.452;16.994;2023-02-28T08:15:36;10.15;;;2.92;;
75628;SDS011;64213;46.452;16.994;2023-02-28T08:18:38;11.75;;;3.62;;
75628;SDS011;64213;46.452;16.994;2023-02-28T08:21:40;4.60;;;1.30;;
75628;SDS011;64213;46.452;16.994;2023-02-28T08:24:42;9.57;;;3.57;;
75628;SDS011;64213;46.452;16.994;2023-02-28T08:27:45;10.80;;;3.60;;
75628;SDS011;64213;46.452;16.994;2023-02-28T08:30:47;10.27;;;2.78;;
75628;SDS011;64213;46.452;16.994;2023-02-28T08:33:50;9.95;;;3.03;;
75628;SDS011;64213;46.452;16.994;2023-02-28T08:36:54;8.73;;;3.20;;
75628;SDS011;64213;46.452;16.994;2023-02-28T08:39:57;10.47;;;3.67;;
75628;SDS011;64213;46.452;16.994;2023-02-28T08:42:59;9.37;;;2.90;;
75628;SDS011;64213;46.452;16.994;2023-02-28T08:46:01;9.73;;;2.75;;
75628;SDS011;64213;46.452;16.994;2023-02-28T08:49:04;6.30;;;1.70;;
75628;SDS011;64213;46.452;16.994;2023-02-28T08:52:06;12.30;;;3.53;;
75628;SDS011;64213;46.452;16.994;2023-02-28T08:55:08;3.93;;;1.27;;
75628;SDS011;64213;46.452;16.994;2023-02-28T08:58:11;9.20;;;3.07;;
75628;SDS011;64213;46.452;16.994;2023-02-28T09:01:14;10.30;;;3.12;;
75628;SDS011;64213;46.452;16.994;2023-02-28T09:04:17;9.48;;;3.40;;
75628;SDS011;64213;46.452;16.994;2023-02-28T09:07:21;11.38;;;2.90;;
75628;SDS011;64213;46.452;16.994;2023-02-28T09:10:23;8.90;;;2.80;;
75628;SDS011;64213;46.452;16.994;2023-02-28T09:13:26;10.13;;;2.93;;
75628;SDS011;64213;46.452;16.994;2023-02-28T09:16:29;9.23;;;2.55;;
75628;SDS011;64213;46.452;16.994;2023-02-28T09:19:33;9.93;;;3.08;;
75628;SDS011;64213;46.452;16.994;2023-02-28T09:22:35;9.07;;;2.67;;
75628;SDS011;64213;46.452;16.994;2023-02-28T09:25:38;9.77;;;2.93;;
75628;SDS011;64213;46.452;16.994;2023-02-28T09:28:46;9.93;;;3.10;;
75628;SDS011;64213;46.452;16.994;2023-02-28T09:31:48;8.73;;;2.83;;
75628;SDS011;64213;46.452;16.994;2023-02-28T09:34:51;8.20;;;2.90;;
75628;SDS011;64213;46.452;16.994;2023-02-28T09:37:53;10.25;;;3.20;;
75628;SDS011;64213;46.452;16.994;2023-02-28T09:41:00;8.67;;;2.10;;
75628;SDS011;64213;46.452;16.994;2023-02-28T09:44:05;9.53;;;2.33;;
75628;SDS011;64213;46.452;16.994;2023-02-28T09:53:29;10.35;;;3.25;;
75628;SDS011;64213;46.452;16.994;2023-02-28T09:56:41;9.47;;;3.00;;
75628;SDS011;64213;46.452;16.994;2023-02-28T09:59:53;9.77;;;3.27;;
75628;SDS011;64213;46.452;16.994;2023-02-28T10:06:18;7.47;;;2.62;;
75628;SDS011;64213;46.452;16.994;2023-02-28T10:09:32;8.13;;;2.95;;
75628;SDS011;64213;46.452;16.994;2023-02-28T10:12:37;5.00;;;1.70;;
75628;SDS011;64213;46.452;16.994;2023-02-28T10:15:45;7.83;;;2.87;;
75628;SDS011;64213;46.452;16.994;2023-02-28T10:18:54;8.18;;;3.25;;
75628;SDS011;64213;46.452;16.994;2023-02-28T10:22:03;3.92;;;1.42;;
75628;SDS011;64213;46.452;16.994;2023-02-28T10:25:20;11.95;;;3.58;;
75628;SDS011;64213;46.452;16.994;2023-02-28T10:28:25;10.73;;;4.10;;
75628;SDS011;64213;46.452;16.994;2023-02-28T10:31:30;9.40;;;2.63;;
75628;SDS011;64213;46.452;16.994;2023-02-28T10:34:32;9.73;;;3.30;;
75628;SDS011;64213;46.452;16.994;2023-02-28T10:37:37;8.15;;;3.03;;
75628;SDS011;64213;46.452;16.994;2023-02-28T10:40:40;10.88;;;3.65;;
75628;SDS011;64213;46.452;16.994;2023-02-28T10:43:42;7.97;;;2.20;;
75628;SDS011;64213;46.452;16.994;2023-02-28T10:46:49;11.37;;;4.80;;
75628;SDS011;64213;46.452;16.994;2023-02-28T10:49:52;14.65;;;4.35;;
75628;SDS011;64213;46.452;16.994;2023-02-28T10:52:54;11.18;;;3.60;;
75628;SDS011;64213;46.452;16.994;2023-02-28T11:02:29;11.03;;;4.43;;
75628;SDS011;64213;46.452;16.994;2023-02-28T11:05:44;7.62;;;2.92;;
75628;SDS011;64213;46.452;16.994;2023-02-28T11:08:54;10.77;;;3.45;;
75628;SDS011;64213;46.452;16.994;2023-02-28T11:11:58;9.82;;;3.85;;
75628;SDS011;64213;46.452;16.994;2023-02-28T11:15:02;10.57;;;3.97;;
75628;SDS011;64213;46.452;16.994;2023-02-28T11:21:31;8.32;;;3.05;;
75628;SDS011;64213;46.452;16.994;2023-02-28T11:24:41;10.98;;;3.83;;
75628;SDS011;64213;46.452;16.994;2023-02-28T11:27:47;10.95;;;3.97;;
75628;SDS011;64213;46.452;16.994;2023-02-28T11:31:02;10.47;;;3.73;;
75628;SDS011;64213;46.452;16.994;2023-02-28T11:34:22;10.53;;;3.73;;
75628;SDS011;64213;46.452;16.994;2023-02-28T11:37:28;10.38;;;3.22;;
75628;SDS011;64213;46.452;16.994;2023-02-28T11:44:02;9.73;;;3.47;;
75628;SDS011;64213;46.452;16.994;2023-02-28T11:47:11;9.70;;;4.00;;
75628;SDS011;64213;46.452;16.994;2023-02-28T11:54:21;10.30;;;3.90;;
75628;SDS011;64213;46.452;16.994;2023-02-28T11:57:49;9.80;;;3.22;;
75628;SDS011;64213;46.452;16.994;2023-02-28T12:04:21;11.17;;;3.93;;
75628;SDS011;64213;46.452;16.994;2023-02-28T12:07:31;10.40;;;3.90;;
75628;SDS011;64213;46.452;16.994;2023-02-28T12:28:03;10.43;;;3.90;;
75628;SDS011;64213;46.452;16.994;2023-02-28T12:31:10;10.07;;;2.65;;
75628;SDS011;64213;46.452;16.994;2023-02-28T12:34:23;11.82;;;4.00;;
75628;SDS011;64213;46.452;16.994;2023-02-28T12:37:37;10.93;;;4.40;;
75628;SDS011;64213;46.452;16.994;2023-02-28T12:40:48;14.67;;;5.20;;
75628;SDS011;64213;46.452;16.994;2023-02-28T12:44:04;12.90;;;4.93;;
75628;SDS011;64213;46.452;16.994;2023-02-28T12:47:14;10.77;;;2.95;;
75628;SDS011;64213;46.452;16.994;2023-02-28T12:50:17;11.73;;;4.20;;
75628;SDS011;64213;46.452;16.994;2023-02-28T12:53:23;8.87;;;3.23;;
75628;SDS011;64213;46.452;16.994;2023-02-28T12:56:36;5.03;;;1.30;;
75628;SDS011;64213;46.452;16.994;2023-02-28T13:00:13;13.05;;;4.68;;
75628;SDS011;64213;46.452;16.994;2023-02-28T13:03:52;11.00;;;3.80;;
75628;SDS011;64213;46.452;16.994;2023-02-28T13:10:23;9.57;;;2.83;;
75628;SDS011;64213;46.452;16.994;2023-02-28T13:13:26;10.57;;;3.77;;
75628;SDS011;64213;46.452;16.994;2023-02-28T13:16:51;8.63;;;2.83;;
75628;SDS011;64213;46.452;16.994;2023-02-28T13:20:00;8.55;;;3.50;;
75628;SDS011;64213;46.452;16.994;2023-02-28T13:23:02;8.07;;;3.10;;
75628;SDS011;64213;46.452;16.994;2023-02-28T13:26:06;10.40;;;4.43;;
75628;SDS011;64213;46.452;16.994;2023-02-28T13:35:35;11.32;;;4.72;;
75628;SDS011;64213;46.452;16.994;2023-02-28T13:38:43;11.25;;;4.78;;
75628;SDS011;64213;46.452;16.994;2023-02-28T13:41:47;11.70;;;4.30;;
75628;SDS011;64213;46.452;16.994;2023-02-28T13:45:32;12.57;;;5.43;;
75628;SDS011;64213;46.452;16.994;2023-02-28T13:48:15;10.23;;;4.00;;
75628;SDS011;64213;46.452;16.994;2023-02-28T13:51:36;10.07;;;3.97;;
75628;SDS011;64213;46.452;16.994;2023-02-28T14:04:46;11.15;;;4.10;;
75628;SDS011;64213;46.452;16.994;2023-02-28T14:07:51;12.55;;;4.68;;
75628;SDS011;64213;46.452;16.994;2023-02-28T14:11:06;12.85;;;4.50;;
75628;SDS011;64213;46.452;16.994;2023-02-28T14:17:36;11.67;;;4.40;;
75628;SDS011;64213;46.452;16.994;2023-02-28T14:20:39;8.82;;;3.05;;
75628;SDS011;64213;46.452;16.994;2023-02-28T14:27:08;11.80;;;3.90;;
75628;SDS011;64213;46.452;16.994;2023-02-28T14:33:31;13.17;;;4.17;;
75628;SDS011;64213;46.452;16.994;2023-02-28T14:36:44;6.55;;;2.47;;
75628;SDS011;64213;46.452;16.994;2023-02-28T14:39:47;10.63;;;3.72;;
75628;SDS011;64213;46.452;16.994;2023-02-28T14:43:00;10.55;;;3.70;;
75628;SDS011;64213;46.452;16.994;2023-02-28T14:46:06;11.13;;;4.27;;
75628;SDS011;64213;46.452;16.994;2023-02-28T14:49:15;12.27;;;4.07;;
75628;SDS011;64213;46.452;16.994;2023-02-28T14:52:27;12.93;;;4.70;;
75628;SDS011;64213;46.452;16.994;2023-02-28T14:55:32;9.07;;;2.97;;
75628;SDS011;64213;46.452;16.994;2023-02-28T14:58:37;12.63;;;4.75;;
75628;SDS011;64213;46.452;16.994;2023-02-28T15:01:39;12.17;;;3.80;;
75628;SDS011;64213;46.452;16.994;2023-02-28T15:04:41;7.33;;;2.33;;
75628;SDS011;64213;46.452;16.994;2023-02-28T15:07:44;12.90;;;4.37;;
75628;SDS011;64213;46.452;16.994;2023-02-28T15:14:21;12.43;;;4.62;;
75628;SDS011;64213;46.452;16.994;2023-02-28T15:17:24;12.30;;;4.53;;
75628;SDS011;64213;46.452;16.994;2023-02-28T15:20:27;11.67;;;4.00;;
75628;SDS011;64213;46.452;16.994;2023-02-28T15:23:29;11.02;;;4.30;;
75628;SDS011;64213;46.452;16.994;2023-02-28T15:26:34;4.72;;;1.52;;
75628;SDS011;64213;46.452;16.994;2023-02-28T15:29:51;16.55;;;4.32;;
75628;SDS011;64213;46.452;16.994;2023-02-28T15:36:15;16.00;;;4.53;;
75628;SDS011;64213;46.452;16.994;2023-02-28T15:39:23;11.60;;;3.72;;
75628;SDS011;64213;46.452;16.994;2023-02-28T15:42:31;11.27;;;3.47;;
75628;SDS011;64213;46.452;16.994;2023-02-28T15:48:51;10.10;;;2.93;;
75628;SDS011;64213;46.452;16.994;2023-02-28T15:51:56;12.30;;;4.33;;
75628;SDS011;64213;46.452;16.994;2023-02-28T15:55:34;6.40;;;2.05;;
75628;SDS011;64213;46.452;16.994;2023-02-28T15:58:30;5.68;;;1.50;;
75628;SDS011;64213;46.452;16.994;2023-02-28T16:01:35;9.77;;;3.30;;
75628;SDS011;64213;46.452;16.994;2023-02-28T16:08:20;11.03;;;3.40;;
75628;SDS011;64213;46.452;16.994;2023-02-28T16:11:23;9.55;;;3.42;;
75628;SDS011;64213;46.452;16.994;2023-02-28T16:14:25;11.25;;;4.22;;
75628;SDS011;64213;46.452;16.994;2023-02-28T16:17:31;11.95;;;3.83;;
75628;SDS011;64213;46.452;16.994;2023-02-28T16:20:36;14.37;;;5.53;;
75628;SDS011;64213;46.452;16.994;2023-02-28T16:23:38;8.77;;;2.97;;
75628;SDS011;64213;46.452;16.994;2023-02-28T16:26:41;13.25;;;4.95;;
75628;SDS011;64213;46.452;16.994;2023-02-28T16:29:47;7.90;;;2.83;;
75628;SDS011;64213;46.452;16.994;2023-02-28T16:32:51;10.77;;;3.45;;
75628;SDS011;64213;46.452;16.994;2023-02-28T16:35:55;21.83;;;6.43;;
75628;SDS011;64213;46.452;16.994;2023-02-28T16:38:58;17.70;;;5.57;;
75628;SDS011;64213;46.452;16.994;2023-02-28T16:42:00;17.87;;;6.90;;
75628;SDS011;64213;46.452;16.994;2023-02-28T16:45:02;21.67;;;9.10;;
75628;SDS011;64213;46.452;16.994;2023-02-28T16:48:05;15.25;;;5.60;;
75628;SDS011;64213;46.452;16.994;2023-02-28T16:51:13;23.23;;;8.90;;
75628;SDS011;64213;46.452;16.994;2023-02-28T16:54:17;18.87;;;7.40;;
75628;SDS011;64213;46.452;16.994;2023-02-28T16:57:21;20.70;;;8.45;;
75628;SDS011;64213;46.452;16.994;2023-02-28T17:00:27;15.05;;;6.07;;
75628;SDS011;64213;46.452;16.994;2023-02-28T17:03:33;18.25;;;6.22;;
75628;SDS011;64213;46.452;16.994;2023-02-28T17:06:35;21.80;;;9.20;;
75628;SDS011;64213;46.452;16.994;2023-02-28T17:09:39;20.33;;;8.93;;
75628;SDS011;64213;46.452;16.994;2023-02-28T17:12:45;19.23;;;8.65;;
75628;SDS011;64213;46.452;16.994;2023-02-28T17:15:50;22.02;;;9.10;;
75628;SDS011;64213;46.452;16.994;2023-02-28T17:18:53;15.45;;;6.12;;
75628;SDS011;64213;46.452;16.994;2023-02-28T17:21:59;16.53;;;6.70;;
75628;SDS011;64213;46.452;16.994;2023-02-28T17:25:02;15.93;;;6.43;;
75628;SDS011;64213;46.452;16.994;2023-02-28T17:28:05;14.20;;;5.95;;
75628;SDS011;64213;46.452;16.994;2023-02-28T17:31:08;16.25;;;6.65;;
75628;SDS011;64213;46.452;16.994;2023-02-28T17:34:13;14.50;;;5.72;;
75628;SDS011;64213;46.452;16.994;2023-02-28T17:37:20;16.73;;;5.93;;
75628;SDS011;64213;46.452;16.994;2023-02-28T17:40:33;14.77;;;5.60;;
75628;SDS011;64213;46.452;16.994;2023-02-28T17:43:37;15.32;;;5.97;;
75628;SDS011;64213;46.452;16.994;2023-02-28T17:46:40;18.02;;;6.53;;
75628;SDS011;64213;46.452;16.994;2023-02-28T17:49:45;16.12;;;6.15;;
75628;SDS011;64213;46.452;16.994;2023-02-28T17:52:55;29.03;;;9.77;;
75628;SDS011;64213;46.452;16.994;2023-02-28T17:55:58;15.87;;;6.23;;
75628;SDS011;64213;46.452;16.994;2023-02-28T17:59:00;20.67;;;7.72;;
75628;SDS011;64213;46.452;16.994;2023-02-28T18:02:03;16.92;;;6.75;;
75628;SDS011;64213;46.452;16.994;2023-02-28T18:05:06;16.27;;;6.40;;
75628;SDS011;64213;46.452;16.994;2023-02-28T18:08:11;16.33;;;6.97;;
75628;SDS011;64213;46.452;16.994;2023-02-28T18:11:17;16.40;;;5.77;;
75628;SDS011;64213;46.452;16.994;2023-02-28T18:14:22;8.70;;;3.33;;
75628;SDS011;64213;46.452;16.994;2023-02-28T18:17:27;15.85;;;6.45;;
75628;SDS011;64213;46.452;16.994;2023-02-28T18:20:29;16.62;;;6.18;;
75628;SDS011;64213;46.452;16.994;2023-02-28T18:23:32;16.13;;;6.87;;
75628;SDS011;64213;46.452;16.994;2023-02-28T18:26:36;14.20;;;6.13;;
75628;SDS011;64213;46.452;16.994;2023-02-28T18:29:40;14.75;;;5.62;;
75628;SDS011;64213;46.452;16.994;2023-02-28T18:32:43;15.15;;;6.45;;
75628;SDS011;64213;46.452;16.994;2023-02-28T18:35:54;16.08;;;6.22;;
75628;SDS011;64213;46.452;16.994;2023-02-28T18:38:58;17.57;;;7.43;;
75628;SDS011;64213;46.452;16.994;2023-02-28T18:42:02;17.77;;;7.23;;
75628;SDS011;64213;46.452;16.994;2023-02-28T18:45:05;17.90;;;7.20;;
75628;SDS011;64213;46.452;16.994;2023-02-28T18:48:12;18.85;;;7.07;;
75628;SDS011;64213;46.452;16.994;2023-02-28T18:51:17;18.23;;;6.82;;
75628;SDS011;64213;46.452;16.994;2023-02-28T18:54:24;19.20;;;7.90;;
75628;SDS011;64213;46.452;16.994;2023-02-28T18:57:29;16.10;;;5.77;;
75628;SDS011;64213;46.452;16.994;2023-02-28T19:00:33;17.33;;;7.80;;
75628;SDS011;64213;46.452;16.994;2023-02-28T19:03:37;19.52;;;7.32;;
75628;SDS011;64213;46.452;16.994;2023-02-28T19:06:40;17.77;;;7.18;;
75628;SDS011;64213;46.452;16.994;2023-02-28T19:09:44;16.53;;;6.73;;
75628;SDS011;64213;46.452;16.994;2023-02-28T19:12:47;17.17;;;7.73;;
75628;SDS011;64213;46.452;16.994;2023-02-28T19:15:50;20.85;;;8.27;;
75628;SDS011;64213;46.452;16.994;2023-02-28T19:19:02;15.88;;;6.93;;
75628;SDS011;64213;46.452;16.994;2023-02-28T19:22:05;25.45;;;10.98;;
75628;SDS011;64213;46.452;16.994;2023-02-28T19:25:09;25.53;;;11.03;;
75628;SDS011;64213;46.452;16.994;2023-02-28T19:28:14;33.80;;;13.20;;
75628;SDS011;64213;46.452;16.994;2023-02-28T19:31:21;29.70;;;12.30;;
75628;SDS011;64213;46.452;16.994;2023-02-28T19:34:26;32.28;;;12.43;;
75628;SDS011;64213;46.452;16.994;2023-02-28T19:37:29;30.48;;;11.88;;
75628;SDS011;64213;46.452;16.994;2023-02-28T19:40:36;31.30;;;13.00;;
75628;SDS011;64213;46.452;16.994;2023-02-28T19:43:39;24.40;;;10.57;;
75628;SDS011;64213;46.452;16.994;2023-02-28T19:46:43;25.02;;;10.50;;
75628;SDS011;64213;46.452;16.994;2023-02-28T19:49:46;26.58;;;10.68;;
75628;SDS011;64213;46.452;16.994;2023-02-28T19:52:49;26.62;;;9.75;;
75628;SDS011;64213;46.452;16.994;2023-02-28T19:55:57;20.90;;;8.00;;
75628;SDS011;64213;46.452;16.994;2023-02-28T19:59:03;20.83;;;7.60;;
75628;SDS011;64213;46.452;16.994;2023-02-28T20:02:21;17.33;;;7.57;;
75628;SDS011;64213;46.452;16.994;2023-02-28T20:05:25;19.77;;;7.45;;
75628;SDS011;64213;46.452;16.994;2023-02-28T20:08:28;19.23;;;8.20;;
75628;SDS011;64213;46.452;16.994;2023-02-28T20:11:31;23.17;;;10.83;;